Main page
METAR-TAF:

METAR-TAF

Airports :

Aransas County Airport

Rockport, Texas, United States

latitude: 28-05-01N, longitude: 097-02-47W, elevation: 23 ft

Current weather observation

The report was made 21 minutes ago, at 15:03 UTC
Wind 8 mph from the Northeast
Temperature 81°F
Humidity 94%
Pressure 29.95 in. Hg
Visibility: 4 miles
Scattered clouds at a height of 900 ft
Broken clouds at a height of 1400 ft
Overcast at a height of 4700 ft
light rain, mist

METAR: KRKP 231503Z AUTO 05007KT 4SM -RA BR SCT009 BKN014 OVC047 27/26 A2995 RMK AO2 P0000 T02720256

Time: 10:24 (15:24 UTC)


TAF: missing

Weather observations and forecasts of more than 4000 airports (METAR and TAF reports).

The available stations are represented by yellow and red dots on the map.

Hover mouse over dot to see the name of the station.

Then click to see weather observations and forecasts.

To change the map : click on the green buttons with a black cross to zoom in, on the green button with a dash to zoom out, or on the green arrows for adjacent maps.


METAR-TAF: